Time;durP1;ratioP1;P1;durP2;ratioP2;P2;SDS_P1;SDS_P2;PMS_P1;PMS_P2;Temp;Humidity;BMP_temperature;BMP_pressure;BME280_temperature;BME280_humidity;BME280_pressure;Samples;Min_cycle;Max_cycle;Signal;HPM_P1;HPM_P2
2022/01/19 00:00:54;;;;;;;22.67;11.65;;;4.80;99.90;;;;;;4964638;28;20438;-88
2022/01/19 00:03:22;;;;;;;16.52;11.60;;;6.40;99.90;;;;;;4958551;28;20187;-88
2022/01/19 00:05:55;;;;;;;18.50;10.85;;;6.30;99.90;;;;;;4969441;28;20262;-88
2022/01/19 00:08:28;;;;;;;17.77;10.38;;;6.30;99.90;;;;;;4953947;28;20194;-88
2022/01/19 00:10:54;;;;;;;15.75;9.40;;;3.40;99.90;;;;;;4941205;28;20185;-87
2022/01/19 00:13:20;;;;;;;17.50;9.40;;;5.90;99.90;;;;;;4969739;28;20599;-86
2022/01/19 00:15:49;;;;;;;16.80;10.67;;;4.60;99.90;;;;;;4966599;28;20220;-87
2022/01/19 00:18:18;;;;;;;18.23;10.95;;;3.70;99.90;;;;;;4952204;28;20536;-87
2022/01/19 00:20:44;;;;;;;11.90;9.40;;;3.90;99.90;;;;;;4943255;29;20682;-86
2022/01/19 00:23:16;;;;;;;13.05;9.60;;;3.70;99.90;;;;;;4960864;28;20237;-86
2022/01/19 00:25:43;;;;;;;16.63;10.73;;;4.60;99.90;;;;;;4949967;28;20221;-87
2022/01/19 00:28:19;;;;;;;16.15;10.30;;;4.00;99.90;;;;;;4968749;28;20178;-88
2022/01/19 00:30:57;;;;;;;10.18;8.95;;;2.60;99.90;;;;;;4942161;28;20308;-87
2022/01/19 00:33:25;;;;;;;15.70;8.95;;;2.60;99.90;;;;;;4938685;29;20555;-87
2022/01/19 00:35:51;;;;;;;16.73;9.70;;;2.40;99.90;;;;;;4961557;28;20194;-85
2022/01/19 00:38:18;;;;;;;15.98;10.05;;;3.50;99.90;;;;;;4942326;28;20239;-87
2022/01/19 00:40:45;;;;;;;16.88;11.68;;;3.80;99.90;;;;;;4945798;28;20194;-87
2022/01/19 00:43:12;;;;;;;13.50;10.57;;;2.60;99.90;;;;;;5007986;23;20656;-79
2022/01/19 00:45:37;;;;;;;16.13;10.77;;;3.30;99.90;;;;;;4931180;29;20270;-80
2022/01/19 00:48:03;;;;;;;19.87;10.57;;;3.20;99.90;;;;;;4925860;29;20294;-80
2022/01/19 00:50:30;;;;;;;18.83;11.37;;;3.10;99.90;;;;;;4925710;29;20447;-80
2022/01/19 00:52:56;;;;;;;20.35;10.52;;;4.30;99.90;;;;;;4928767;29;20827;-81
2022/01/19 00:55:23;;;;;;;13.85;10.70;;;3.00;99.90;;;;;;4927764;29;20195;-80
2022/01/19 00:57:50;;;;;;;18.13;9.98;;;3.40;99.90;;;;;;4928595;29;20190;-80
2022/01/19 01:00:21;;;;;;;16.25;12.55;;;3.10;99.90;;;;;;4924238;29;20191;-78
2022/01/19 01:02:47;;;;;;;18.90;12.90;;;3.00;99.90;;;;;;4936530;28;20203;-79
2022/01/19 01:05:13;;;;;;;19.33;11.13;;;2.90;99.90;;;;;;4947260;29;20206;-79
2022/01/19 01:07:40;;;;;;;17.30;11.13;;;2.70;99.90;;;;;;4945931;28;20217;-82
2022/01/19 01:10:08;;;;;;;17.20;10.38;;;3.00;99.90;;;;;;4944127;29;20938;-79
2022/01/19 01:12:48;;;;;;;23.35;12.50;;;3.00;99.90;;;;;;4946414;28;20182;-79
2022/01/19 01:20:36;;;;;;;18.92;12.30;;;2.80;99.90;;;;;;4948071;29;20186;-79
2022/01/19 01:23:03;;;;;;;17.48;10.35;;;3.40;99.90;;;;;;4945965;28;20194;-80
2022/01/19 01:25:29;;;;;;;22.45;12.43;;;2.30;99.90;;;;;;4946357;29;20195;-81
2022/01/19 01:27:55;;;;;;;17.33;11.77;;;2.80;99.90;;;;;;4945676;28;20191;-80
2022/01/19 01:30:21;;;;;;;24.10;13.33;;;2.70;99.90;;;;;;4930106;29;20485;-81
2022/01/19 01:32:46;;;;;;;16.13;11.87;;;2.80;99.90;;;;;;4923677;29;20656;-80
2022/01/19 01:35:12;;;;;;;22.03;12.23;;;2.80;99.90;;;;;;4947504;28;20210;-79
2022/01/19 01:37:38;;;;;;;19.87;11.27;;;3.10;99.90;;;;;;4945880;28;20199;-80
2022/01/19 01:40:08;;;;;;;18.63;12.00;;;2.70;99.90;;;;;;4935428;29;20437;-80
2022/01/19 01:42:34;;;;;;;22.48;13.85;;;2.70;99.90;;;;;;4929786;28;20893;-79
2022/01/19 01:45:02;;;;;;;15.07;11.63;;;2.70;99.90;;;;;;4966923;28;20209;-79
2022/01/19 01:47:29;;;;;;;24.42;11.95;;;2.40;99.90;;;;;;4946397;28;20998;-79
2022/01/19 01:55:16;;;;;;;11.50;10.30;;;2.70;99.90;;;;;;4948158;28;20557;-81
2022/01/19 01:57:42;;;;;;;12.80;9.30;;;2.90;99.90;;;;;;4932555;28;20380;-79
2022/01/19 02:00:11;;;;;;;14.40;11.50;;;2.70;99.90;;;;;;4947923;28;20280;-81
2022/01/19 02:02:39;;;;;;;16.80;10.40;;;2.60;99.90;;;;;;4933615;28;20289;-81
2022/01/19 02:05:10;;;;;;;21.10;11.50;;;2.40;99.90;;;;;;4942240;28;20367;-79
2022/01/19 02:23:57;;;;;;;15.75;10.80;;;2.20;99.90;;;;;;4954594;28;20277;-80
2022/01/19 02:26:31;;;;;;;18.95;12.20;;;3.10;99.90;;;;;;4941534;28;20743;-81
2022/01/19 02:29:12;;;;;;;15.30;12.13;;;2.20;99.90;;;;;;4953240;28;20216;-80
2022/01/19 02:42:40;;;;;;;14.57;10.75;;;2.10;99.90;;;;;;4932498;28;20241;-79
2022/01/19 02:50:18;;;;;;;13.20;10.32;;;2.80;99.90;;;;;;4947268;29;20309;-80
2022/01/19 02:52:43;;;;;;;15.90;11.30;;;2.90;99.90;;;;;;4945108;28;20273;-79
2022/01/19 02:55:09;;;;;;;10.30;9.20;;;2.60;99.90;;;;;;4929247;29;20898;-79
2022/01/19 02:57:36;;;;;;;10.63;9.17;;;3.00;99.90;;;;;;4927776;29;20195;-79
2022/01/19 03:11:13;;;;;;;10.05;7.90;;;3.80;99.90;;;;;;4928006;29;20266;-79
2022/01/19 03:13:39;;;;;;;9.23;8.50;;;3.90;99.90;;;;;;4928815;29;20218;-79
2022/01/19 03:16:04;;;;;;;8.77;7.90;;;4.10;99.90;;;;;;4931748;29;20406;-79
2022/01/19 03:18:30;;;;;;;9.43;8.67;;;4.30;99.90;;;;;;4961888;28;20193;-79
2022/01/19 03:20:56;;;;;;;9.20;8.60;;;4.30;99.90;;;;;;4950907;28;20214;-79
2022/01/19 03:23:22;;;;;;;8.10;7.40;;;4.30;99.90;;;;;;4931075;29;20198;-79
2022/01/19 03:25:48;;;;;;;9.37;8.47;;;3.40;99.90;;;;;;4950351;29;20183;-82
2022/01/19 03:28:15;;;;;;;7.80;7.20;;;4.50;99.90;;;;;;4949420;28;20258;-79
2022/01/19 03:30:41;;;;;;;7.53;7.00;;;5.40;99.90;;;;;;4950461;29;20193;-79
2022/01/19 03:33:07;;;;;;;8.50;8.00;;;4.60;99.90;;;;;;4946718;29;20801;-80
2022/01/19 03:35:32;;;;;;;9.10;8.60;;;4.30;99.90;;;;;;4949065;29;20231;-79
2022/01/19 03:37:58;;;;;;;7.83;7.33;;;4.50;99.90;;;;;;4948006;29;20592;-78
2022/01/19 03:40:24;;;;;;;7.90;7.50;;;4.60;99.90;;;;;;4948667;29;20197;-79
2022/01/19 03:42:51;;;;;;;8.10;7.70;;;4.50;99.90;;;;;;4930415;29;20218;-79
2022/01/19 03:45:16;;;;;;;8.20;7.68;;;4.70;99.90;;;;;;4932547;29;20182;-79
2022/01/19 03:47:47;;;;;;;7.50;7.10;;;4.70;99.90;;;;;;4930706;29;20402;-79
2022/01/19 03:50:13;;;;;;;8.27;7.78;;;4.70;99.90;;;;;;4929423;29;20183;-80
2022/01/19 03:52:38;;;;;;;7.60;7.20;;;4.60;99.90;;;;;;4947251;29;20274;-78
2022/01/19 03:55:06;;;;;;;7.90;7.43;;;4.80;99.90;;;;;;4948477;29;20244;-79
2022/01/19 03:57:31;;;;;;;7.18;6.78;;;4.90;99.90;;;;;;4930698;29;20564;-79
2022/01/19 03:59:57;;;;;;;8.27;7.57;;;4.50;99.90;;;;;;4949699;29;20656;-81
2022/01/19 04:02:23;;;;;;;7.60;7.20;;;4.90;99.90;;;;;;4947844;29;20255;-79
2022/01/19 04:05:02;;;;;;;8.97;8.20;;;4.80;99.90;;;;;;4949883;29;20163;-79
2022/01/19 04:07:28;;;;;;;8.68;8.07;;;4.80;99.90;;;;;;4943960;28;20219;-80
2022/01/19 04:09:54;;;;;;;9.20;8.60;;;4.50;99.90;;;;;;4930430;29;20198;-80
2022/01/19 04:12:31;;;;;;;9.50;8.50;;;5.00;99.90;;;;;;4930549;29;20183;-79
2022/01/19 04:14:57;;;;;;;7.88;7.30;;;4.60;99.90;;;;;;4932014;29;20257;-81
2022/01/19 04:17:23;;;;;;;10.63;9.77;;;4.40;99.90;;;;;;4929946;29;20193;-79
2022/01/19 04:19:49;;;;;;;8.82;7.82;;;4.60;99.90;;;;;;4932122;29;20209;-79
2022/01/19 04:22:18;;;;;;;8.03;7.40;;;4.60;99.90;;;;;;4930385;29;20214;-79
2022/01/19 04:24:45;;;;;;;9.07;8.48;;;4.60;99.90;;;;;;4949565;28;20481;-80
2022/01/19 04:29:48;;;;;;;8.70;8.00;;;4.60;99.90;;;;;;4949559;29;20237;-80
2022/01/19 04:32:22;;;;;;;7.82;7.38;;;4.70;99.90;;;;;;4932329;28;20189;-79
2022/01/19 04:34:49;;;;;;;7.25;6.85;;;4.80;99.90;;;;;;4931831;29;20319;-79
2022/01/19 05:04:07;;;;;;;7.18;6.68;;;4.90;99.90;;;;;;4963240;28;20280;-78
2022/01/19 05:06:37;;;;;;;6.15;5.85;;;5.00;99.90;;;;;;4929830;29;20180;-79
2022/01/19 05:09:10;;;;;;;6.35;5.40;;;5.10;99.90;;;;;;4946522;29;20747;-79
2022/01/19 05:14:20;;;;;;;6.28;5.97;;;5.10;99.90;;;;;;4929381;29;20221;-78
2022/01/19 05:16:46;;;;;;;7.07;6.63;;;5.10;99.90;;;;;;4928616;29;20179;-77
2022/01/19 05:19:12;;;;;;;8.40;7.80;;;5.10;99.90;;;;;;4931082;29;20184;-79
2022/01/19 05:21:38;;;;;;;7.33;6.83;;;5.10;99.90;;;;;;4930621;29;20466;-79
2022/01/19 05:24:07;;;;;;;7.53;6.90;;;5.10;99.90;;;;;;4946416;29;20592;-80
2022/01/19 05:26:36;;;;;;;8.57;7.88;;;5.00;99.90;;;;;;4929051;29;20212;-80
2022/01/19 05:29:02;;;;;;;7.53;6.90;;;5.20;99.90;;;;;;4945553;28;20676;-80
2022/01/19 05:31:27;;;;;;;7.88;7.32;;;4.80;99.90;;;;;;4948464;28;20197;-79
2022/01/19 05:33:55;;;;;;;10.90;7.83;;;5.10;99.90;;;;;;4945972;29;20215;-80
2022/01/19 05:36:20;;;;;;;8.02;7.63;;;5.10;99.90;;;;;;4930077;29;20270;-80
2022/01/19 05:38:46;;;;;;;9.17;8.30;;;5.10;99.90;;;;;;4963176;28;20253;-80
2022/01/19 05:41:12;;;;;;;8.43;7.83;;;5.50;99.90;;;;;;4929742;28;20187;-80
2022/01/19 05:43:37;;;;;;;9.33;8.60;;;5.10;99.90;;;;;;4930528;29;20230;-80
2022/01/19 05:46:03;;;;;;;8.17;7.63;;;5.10;99.90;;;;;;4946100;29;20564;-80
2022/01/19 05:48:29;;;;;;;8.77;8.17;;;5.00;99.90;;;;;;4601846;28;9999911;-79
2022/01/19 05:50:54;;;;;;;9.10;8.50;;;4.80;99.90;;;;;;4944353;29;20270;-80
2022/01/19 05:53:20;;;;;;;8.90;8.33;;;5.10;99.90;;;;;;4928260;29;20209;-79
2022/01/19 05:55:46;;;;;;;9.03;8.33;;;5.10;99.90;;;;;;4941926;29;20217;-80
2022/01/19 05:58:11;;;;;;;9.17;8.63;;;5.00;99.90;;;;;;4931081;29;20257;-80
2022/01/19 06:00:38;;;;;;;8.17;7.50;;;7.60;99.90;;;;;;4941766;28;20198;-80
2022/01/19 06:03:04;;;;;;;8.55;7.95;;;4.70;99.90;;;;;;4942780;28;20880;-80
2022/01/19 06:05:31;;;;;;;8.65;7.95;;;4.60;99.90;;;;;;4927314;29;20222;-79
2022/01/19 06:08:16;;;;;;;8.60;8.00;;;5.10;99.90;;;;;;4941914;28;20183;-80
2022/01/19 06:10:43;;;;;;;8.82;8.00;;;5.00;99.90;;;;;;4938075;28;20561;-80
2022/01/19 06:13:09;;;;;;;7.97;7.50;;;5.10;99.90;;;;;;4943395;29;20398;-80
2022/01/19 06:15:35;;;;;;;8.52;8.02;;;4.90;99.90;;;;;;4931781;29;20222;-80
2022/01/19 06:18:02;;;;;;;8.70;8.20;;;5.00;99.90;;;;;;4943969;28;20191;-80
2022/01/19 06:20:28;;;;;;;8.45;7.90;;;5.00;99.90;;;;;;4940378;28;20640;-80
2022/01/19 06:22:54;;;;;;;10.30;8.00;;;5.10;99.90;;;;;;4926446;29;20633;-81
2022/01/19 06:25:19;;;;;;;7.67;7.27;;;5.10;99.90;;;;;;4923625;28;20212;-80
2022/01/19 06:27:45;;;;;;;8.40;7.83;;;5.10;99.90;;;;;;4943299;28;20218;-80
2022/01/19 06:30:12;;;;;;;7.67;7.17;;;5.40;99.90;;;;;;4943395;28;20194;-79
2022/01/19 06:32:38;;;;;;;8.13;7.57;;;5.10;99.90;;;;;;4927989;29;20684;-79
2022/01/19 06:35:04;;;;;;;9.90;9.13;;;5.10;99.90;;;;;;4943486;29;20217;-80
2022/01/19 06:37:30;;;;;;;9.57;8.63;;;5.10;99.90;;;;;;4947238;29;20398;-80
2022/01/19 06:39:55;;;;;;;9.23;8.63;;;5.10;99.90;;;;;;4945069;28;20195;-80
2022/01/19 06:42:21;;;;;;;8.83;8.33;;;5.10;99.90;;;;;;4929325;29;20246;-79
2022/01/19 06:44:47;;;;;;;8.70;8.20;;;5.10;99.90;;;;;;4926606;29;20170;-80
2022/01/19 06:47:12;;;;;;;8.10;7.50;;;4.90;99.90;;;;;;4909981;29;20222;-78
2022/01/19 06:49:38;;;;;;;9.33;8.80;;;5.00;99.90;;;;;;4929984;29;20465;-82
2022/01/19 06:52:04;;;;;;;8.83;8.37;;;4.90;99.90;;;;;;4933681;29;20178;-81
2022/01/19 06:54:30;;;;;;;7.68;7.22;;;4.90;99.90;;;;;;4933222;29;20714;-81
2022/01/19 06:56:56;;;;;;;7.70;7.20;;;4.70;99.90;;;;;;4949104;29;20229;-82
2022/01/19 06:59:21;;;;;;;9.00;8.50;;;6.00;99.90;;;;;;4951507;29;20548;-82
2022/01/19 07:01:47;;;;;;;8.70;7.80;;;5.80;99.90;;;;;;4967899;28;20198;-81
2022/01/19 07:04:15;;;;;;;8.73;8.13;;;6.30;99.90;;;;;;4934989;29;20186;-81
2022/01/19 07:06:41;;;;;;;7.63;7.22;;;6.60;99.90;;;;;;4932737;29;20187;-81
2022/01/19 07:09:07;;;;;;;7.77;7.23;;;5.00;99.90;;;;;;4932377;29;20186;-82
2022/01/19 07:11:36;;;;;;;8.27;7.77;;;4.20;99.90;;;;;;4947834;28;20198;-81
2022/01/19 07:14:01;;;;;;;7.63;7.22;;;4.70;99.90;;;;;;4934100;29;20233;-81
2022/01/19 07:16:27;;;;;;;7.27;6.77;;;4.90;99.90;;;;;;4949218;29;20194;-81
2022/01/19 07:18:53;;;;;;;6.53;6.23;;;4.90;99.90;;;;;;4932979;29;20990;-79
2022/01/19 07:21:18;;;;;;;7.93;7.43;;;5.70;99.90;;;;;;4962793;28;20190;-83
2022/01/19 07:23:44;;;;;;;7.30;6.90;;;3.60;99.90;;;;;;4951090;28;20185;-82
2022/01/19 07:26:10;;;;;;;7.77;7.27;;;5.10;99.90;;;;;;4924293;29;20213;-80
2022/01/19 07:28:35;;;;;;;7.50;7.03;;;7.30;99.90;;;;;;4587896;29;10000241;-81
2022/01/19 07:31:01;;;;;;;7.27;6.40;;;4.90;99.90;;;;;;4930216;29;20186;-81
2022/01/19 07:33:27;;;;;;;7.80;7.37;;;5.20;99.90;;;;;;4936791;28;20560;-82
2022/01/19 07:35:52;;;;;;;9.70;9.00;;;4.50;99.90;;;;;;4947831;29;20649;-81
2022/01/19 07:38:26;;;;;;;12.50;10.37;;;5.40;99.90;;;;;;4928798;28;20660;-82
2022/01/19 07:40:52;;;;;;;11.32;10.18;;;5.50;99.90;;;;;;4921331;29;20191;-82
2022/01/19 07:43:18;;;;;;;11.40;10.10;;;4.30;99.90;;;;;;4930297;28;20277;-82
2022/01/19 07:45:44;;;;;;;14.20;11.33;;;4.80;99.90;;;;;;4936906;28;20433;-80
2022/01/19 07:48:10;;;;;;;12.07;10.57;;;7.70;99.90;;;;;;4948644;28;20440;-81
2022/01/19 07:50:36;;;;;;;12.30;11.30;;;5.30;99.90;;;;;;4949695;28;20189;-81
2022/01/19 07:53:03;;;;;;;11.98;10.77;;;4.10;99.90;;;;;;4939166;28;20616;-82
2022/01/19 07:55:29;;;;;;;10.45;9.48;;;5.80;99.90;;;;;;4960590;28;20245;-80
2022/01/19 07:57:57;;;;;;;11.03;8.63;;;4.70;99.90;;;;;;4956299;28;20748;-80
2022/01/19 08:00:23;;;;;;;13.32;12.07;;;4.70;99.90;;;;;;4956962;28;20194;-83
2022/01/19 08:02:49;;;;;;;15.70;12.00;;;4.70;99.90;;;;;;4933530;29;20233;-81
2022/01/19 08:05:16;;;;;;;13.05;11.68;;;4.70;99.90;;;;;;4965255;28;20205;-81
2022/01/19 08:07:42;;;;;;;12.90;11.60;;;4.70;99.90;;;;;;4958386;28;20220;-80
2022/01/19 08:10:10;;;;;;;17.60;13.25;;;4.90;99.90;;;;;;4943206;28;20189;-80
2022/01/19 08:12:37;;;;;;;11.38;10.27;;;4.70;99.90;;;;;;4947951;28;20230;-80
2022/01/19 08:15:04;;;;;;;13.45;11.10;;;4.80;99.90;;;;;;4941705;28;20714;-80
2022/01/19 08:17:30;;;;;;;13.93;12.50;;;4.70;99.90;;;;;;4947689;28;20689;-81
2022/01/19 08:19:56;;;;;;;13.27;11.87;;;4.70;99.90;;;;;;4959853;28;20195;-81
2022/01/19 08:22:23;;;;;;;14.65;12.73;;;6.80;99.90;;;;;;4946123;29;20282;-79
2022/01/19 08:24:49;;;;;;;12.40;11.10;;;4.60;99.90;;;;;;4950897;29;20519;-81
2022/01/19 08:27:15;;;;;;;15.30;12.90;;;4.40;99.90;;;;;;4949805;28;20245;-80
2022/01/19 08:29:41;;;;;;;17.08;14.88;;;4.60;99.90;;;;;;4949360;28;20655;-79
2022/01/19 08:32:07;;;;;;;12.60;11.52;;;4.50;99.90;;;;;;4620936;28;10000021;-81
2022/01/19 08:34:33;;;;;;;15.40;13.27;;;4.20;99.90;;;;;;4929173;29;20245;-81
2022/01/19 08:37:00;;;;;;;13.93;12.57;;;4.50;99.90;;;;;;4944254;29;20253;-82
2022/01/19 08:39:27;;;;;;;16.02;14.27;;;5.80;99.90;;;;;;4929351;29;20414;-80
2022/01/19 08:41:53;;;;;;;15.93;14.30;;;4.80;99.90;;;;;;4946633;28;20182;-79
2022/01/19 08:44:20;;;;;;;17.30;13.88;;;4.60;99.90;;;;;;4966972;28;20167;-85
2022/01/19 08:46:46;;;;;;;18.85;14.13;;;4.60;99.90;;;;;;4965807;28;20230;-81
2022/01/19 08:49:13;;;;;;;17.50;15.73;;;5.40;99.90;;;;;;4947979;29;20278;-84
2022/01/19 08:51:38;;;;;;;14.20;11.38;;;4.60;99.90;;;;;;4947982;29;20803;-84
2022/01/19 08:54:07;;;;;;;14.17;12.27;;;4.70;99.90;;;;;;4943577;28;20854;-83
2022/01/19 08:56:33;;;;;;;15.10;12.88;;;4.70;99.90;;;;;;4931377;29;20191;-84
2022/01/19 08:58:59;;;;;;;13.27;11.43;;;5.70;99.90;;;;;;4963390;28;20218;-83
2022/01/19 09:01:25;;;;;;;15.45;13.30;;;4.80;99.90;;;;;;4965582;28;20556;-80
2022/01/19 09:03:51;;;;;;;18.77;12.23;;;4.80;99.90;;;;;;4928873;29;20198;-80
2022/01/19 09:06:18;;;;;;;15.10;13.60;;;4.80;99.90;;;;;;4945620;29;20178;-82
2022/01/19 09:08:43;;;;;;;15.38;13.80;;;4.80;99.90;;;;;;4959765;28;20870;-81
2022/01/19 09:11:10;;;;;;;14.50;13.00;;;4.80;99.90;;;;;;4963898;28;20274;-81
2022/01/19 09:13:36;;;;;;;14.68;12.98;;;5.30;99.90;;;;;;4948549;28;20198;-81
2022/01/19 09:16:02;;;;;;;13.00;11.57;;;4.80;99.90;;;;;;4928092;29;20305;-81
2022/01/19 09:18:28;;;;;;;13.77;12.27;;;4.90;99.90;;;;;;4957388;28;20433;-82
2022/01/19 09:20:53;;;;;;;14.57;13.07;;;4.90;99.90;;;;;;4964090;28;20182;-82
2022/01/19 09:23:19;;;;;;;12.67;11.33;;;4.90;99.90;;;;;;4933481;29;20601;-81
2022/01/19 09:25:45;;;;;;;15.40;13.50;;;6.90;99.90;;;;;;4927904;29;20598;-81
2022/01/19 09:28:10;;;;;;;16.27;13.03;;;4.90;99.90;;;;;;4941308;29;20234;-82
2022/01/19 09:30:37;;;;;;;13.57;11.90;;;4.70;99.90;;;;;;4944740;29;20238;-81
2022/01/19 09:33:08;;;;;;;12.60;11.40;;;4.90;99.90;;;;;;4930931;29;20245;-81
2022/01/19 09:38:36;;;;;;;15.23;12.63;;;4.90;99.90;;;;;;4937094;29;20197;-80
2022/01/19 09:41:05;;;;;;;16.05;11.40;;;5.00;99.90;;;;;;4953008;28;20197;-81
2022/01/19 09:43:31;;;;;;;14.82;13.27;;;4.90;99.90;;;;;;4942284;28;20218;-82
2022/01/19 09:45:59;;;;;;;15.90;11.17;;;4.50;99.90;;;;;;4923733;29;20278;-82
2022/01/19 09:48:26;;;;;;;15.75;13.40;;;4.90;99.90;;;;;;4927781;28;20193;-82
2022/01/19 09:50:53;;;;;;;16.05;14.15;;;5.00;99.90;;;;;;4947544;28;20189;-80
2022/01/19 09:53:19;;;;;;;17.33;13.25;;;4.50;99.90;;;;;;4947397;29;20262;-75
2022/01/19 09:55:46;;;;;;;16.00;13.97;;;4.90;99.90;;;;;;4951319;28;20312;-80
2022/01/19 09:58:12;;;;;;;14.68;13.07;;;5.30;99.90;;;;;;4949694;28;20425;-79
2022/01/19 10:00:38;;;;;;;14.60;13.00;;;5.10;99.90;;;;;;4949069;28;20197;-81
2022/01/19 10:03:21;;;;;;;15.35;12.48;;;4.80;99.90;;;;;;4957551;28;20210;-81
2022/01/19 10:06:10;;;;;;;16.67;14.15;;;4.90;99.90;;;;;;4949761;28;20551;-81
2022/01/19 10:08:48;;;;;;;15.07;11.82;;;5.00;99.90;;;;;;4933965;28;20309;-82
2022/01/19 10:16:59;;;;;;;16.42;13.02;;;5.10;99.90;;;;;;4935473;28;20260;-81
2022/01/19 10:19:30;;;;;;;16.00;14.40;;;5.10;99.90;;;;;;4938740;29;20535;-80
2022/01/19 10:22:02;;;;;;;17.58;12.70;;;5.20;99.90;;;;;;4928164;29;20205;-81
2022/01/19 10:24:46;;;;;;;13.77;12.32;;;5.20;99.90;;;;;;4930025;29;20217;-82
2022/01/19 10:27:40;;;;;;;17.25;12.45;;;5.20;99.90;;;;;;4959354;28;20193;-80
2022/01/19 10:30:06;;;;;;;19.42;13.90;;;5.30;99.90;;;;;;4915265;29;20175;-81
2022/01/19 10:32:36;;;;;;;17.83;13.60;;;5.20;99.90;;;;;;4937756;28;20200;-80
2022/01/19 10:35:26;;;;;;;19.48;13.05;;;5.30;99.90;;;;;;4930156;29;20218;-82
2022/01/19 10:38:16;;;;;;;16.40;14.52;;;5.30;99.90;;;;;;4961461;28;20202;-79
2022/01/19 10:41:07;;;;;;;19.33;15.68;;;5.20;99.90;;;;;;4956963;28;20246;-83
2022/01/19 10:43:48;;;;;;;18.50;14.73;;;5.20;99.90;;;;;;4953628;28;20261;-81
2022/01/19 10:46:30;;;;;;;15.82;13.85;;;5.30;99.90;;;;;;4927118;28;20202;-82
2022/01/19 10:49:04;;;;;;;18.02;14.10;;;5.30;99.90;;;;;;4946768;29;20175;-81
2022/01/19 10:51:37;;;;;;;15.88;13.80;;;5.40;99.90;;;;;;4935280;29;20231;-81
2022/01/19 10:54:22;;;;;;;14.73;13.00;;;4.60;99.90;;;;;;4958725;28;20249;-80
2022/01/19 10:56:57;;;;;;;15.70;14.10;;;5.40;99.90;;;;;;4935501;28;20241;-80
2022/01/19 10:59:41;;;;;;;17.08;13.95;;;6.10;99.90;;;;;;4912320;28;20274;-83
2022/01/19 11:02:09;;;;;;;17.42;15.10;;;5.40;99.90;;;;;;4938479;28;20236;-80
2022/01/19 11:04:48;;;;;;;15.80;14.02;;;5.50;99.90;;;;;;4958498;28;20631;-81
2022/01/19 11:07:19;;;;;;;17.60;13.77;;;5.50;99.90;;;;;;4958047;28;20742;-80
2022/01/19 11:09:46;;;;;;;16.52;13.93;;;5.50;99.90;;;;;;4959177;28;20175;-79
2022/01/19 11:12:19;;;;;;;13.32;11.15;;;5.60;99.90;;;;;;4945202;28;20199;-80
2022/01/19 11:14:45;;;;;;;18.48;13.82;;;8.00;99.90;;;;;;4240507;29;10000768;-80
2022/01/19 11:17:11;;;;;;;18.88;11.98;;;8.00;99.90;;;;;;4931339;29;20203;-80
2022/01/19 11:19:43;;;;;;;13.90;12.50;;;5.70;99.90;;;;;;4933897;28;20209;-81
2022/01/19 11:22:15;;;;;;;15.13;11.98;;;5.80;99.90;;;;;;4943004;28;20667;-81
2022/01/19 11:25:02;;;;;;;21.77;13.15;;;5.70;99.90;;;;;;4942888;28;20293;-79
2022/01/19 11:27:36;;;;;;;18.88;13.57;;;5.70;99.90;;;;;;4948474;28;20195;-80
2022/01/19 11:30:16;;;;;;;18.38;13.40;;;5.50;99.90;;;;;;4946719;28;20194;-83
2022/01/19 11:33:04;;;;;;;15.05;12.52;;;5.60;99.90;;;;;;4945527;28;20667;-82
2022/01/19 11:36:01;;;;;;;15.32;13.35;;;5.70;99.90;;;;;;4932584;29;20390;-82
2022/01/19 11:39:04;;;;;;;15.75;13.25;;;5.80;99.90;;;;;;4948606;28;20920;-83
2022/01/19 11:41:40;;;;;;;13.82;12.25;;;5.00;99.90;;;;;;4934747;28;20284;-82
2022/01/19 11:44:10;;;;;;;13.43;12.02;;;5.10;99.90;;;;;;4930937;28;20237;-82
2022/01/19 11:46:45;;;;;;;19.83;12.73;;;5.50;99.90;;;;;;4952076;28;20210;-81
2022/01/19 11:49:14;;;;;;;15.57;12.23;;;5.80;99.90;;;;;;4943768;28;20198;-82
2022/01/19 11:51:44;;;;;;;12.10;10.77;;;6.00;99.90;;;;;;4953818;28;20718;-82
2022/01/19 11:54:31;;;;;;;17.92;15.05;;;5.20;99.90;;;;;;4947222;28;20218;-82
2022/01/19 11:56:59;;;;;;;14.98;13.27;;;5.40;99.90;;;;;;4951561;28;20586;-82
2022/01/19 11:59:43;;;;;;;15.57;13.48;;;5.20;99.90;;;;;;4929388;29;20601;-83
2022/01/19 12:02:23;;;;;;;18.25;14.73;;;5.40;99.90;;;;;;4944982;29;20269;-81
2022/01/19 12:04:58;;;;;;;21.80;13.57;;;5.40;99.90;;;;;;4939841;28;20472;-80
2022/01/19 12:07:40;;;;;;;16.48;13.65;;;5.50;99.90;;;;;;4945358;29;20186;-80
2022/01/19 12:10:13;;;;;;;16.75;11.15;;;5.90;99.90;;;;;;4949521;28;20194;-80
2022/01/19 12:12:47;;;;;;;13.90;12.48;;;5.50;99.90;;;;;;4944749;29;20182;-79
2022/01/19 12:15:49;;;;;;;15.50;11.95;;;5.40;99.90;;;;;;4945934;28;20590;-78
2022/01/19 12:18:38;;;;;;;23.02;15.57;;;6.30;99.90;;;;;;4945558;29;20592;-80
2022/01/19 12:21:04;;;;;;;15.43;12.60;;;5.40;99.90;;;;;;4938703;29;20265;-80
2022/01/19 12:23:32;;;;;;;13.27;11.88;;;5.20;99.90;;;;;;4945539;28;20197;-80
2022/01/19 12:26:02;;;;;;;17.50;14.60;;;5.40;99.90;;;;;;4938560;29;20331;-81
2022/01/19 12:28:37;;;;;;;19.15;15.60;;;5.30;99.90;;;;;;4948676;28;20241;-81
2022/01/19 12:31:22;;;;;;;15.90;14.18;;;5.00;99.90;;;;;;4952829;28;20181;-80
2022/01/19 12:34:07;;;;;;;18.00;14.82;;;5.60;99.90;;;;;;4960245;28;20739;-83
2022/01/19 12:36:52;;;;;;;18.45;14.82;;;5.10;99.90;;;;;;4950043;29;20171;-81
2022/01/19 12:39:28;;;;;;;14.98;13.25;;;5.30;99.90;;;;;;4959842;28;20221;-81
2022/01/19 12:42:03;;;;;;;14.48;12.98;;;5.40;99.90;;;;;;4952904;28;20208;-81
2022/01/19 12:44:44;;;;;;;19.77;16.92;;;5.40;99.90;;;;;;5489844;23;20229;-90
2022/01/19 12:47:29;;;;;;;19.48;15.57;;;6.70;99.90;;;;;;5010701;23;20225;-88
2022/01/19 13:06:22;;;;;;;17.75;15.45;;;5.30;99.90;;;;;;4629610;23;21153;-89
2022/01/19 13:35:27;;;;;;;21.10;16.70;;;5.40;99.90;;;;;;5084480;23;20225;-86
2022/01/19 13:37:58;;;;;;;21.85;15.65;;;5.10;99.90;;;;;;5074872;23;20843;-86
2022/01/19 13:40:31;;;;;;;16.02;11.68;;;4.60;99.90;;;;;;4937852;29;20454;-86
2022/01/19 13:43:18;;;;;;;18.00;14.27;;;7.60;99.90;;;;;;4911007;29;20222;-86
2022/01/19 13:48:28;;;;;;;13.68;11.10;;;5.20;99.90;;;;;;4924392;29;20231;-85
2022/01/19 13:51:01;;;;;;;19.17;15.70;;;5.70;99.90;;;;;;4915540;29;20339;-87
2022/01/19 13:53:33;;;;;;;18.88;16.90;;;6.00;99.90;;;;;;4920779;29;20183;-83
2022/01/19 13:56:14;;;;;;;17.38;14.40;;;7.60;99.90;;;;;;4906333;29;20218;-86
2022/01/19 13:58:42;;;;;;;18.48;14.30;;;5.20;99.90;;;;;;4926151;29;20195;-85
2022/01/19 14:01:20;;;;;;;16.83;12.52;;;7.50;99.90;;;;;;4922735;29;20306;-83
2022/01/19 14:04:05;;;;;;;18.27;16.00;;;7.30;99.90;;;;;;4921202;29;20270;-87
2022/01/19 14:07:10;;;;;;;19.20;15.82;;;6.40;99.90;;;;;;4921720;29;20250;-86
2022/01/19 14:10:32;;;;;;;17.95;13.52;;;6.50;99.90;;;;;;4909725;29;20198;-87
2022/01/19 14:13:01;;;;;;;21.10;15.75;;;5.30;99.90;;;;;;4896212;29;20211;-87
2022/01/19 14:15:27;;;;;;;23.35;15.75;;;5.10;99.90;;;;;;4912340;29;20307;-85
2022/01/19 14:18:10;;;;;;;19.03;14.53;;;5.10;99.90;;;;;;4910817;29;20732;-87
2022/01/19 14:20:38;;;;;;;18.90;13.20;;;5.30;99.90;;;;;;4904905;29;20431;-87
2022/01/19 14:23:12;;;;;;;21.98;17.10;;;5.80;99.90;;;;;;4907986;29;20200;-88
2022/01/19 14:25:53;;;;;;;;;;;;;;;;;;;;;
2022/01/19 14:28:41;;;;;;;;;;;;;;;;;;;;;
2022/01/19 14:31:12;;;;;;;23.63;16.88;;;5.20;99.90;;;;;;4900922;29;20187;-87
2022/01/19 14:34:32;;;;;;;19.67;15.68;;;5.90;99.90;;;;;;4909386;29;20294;-85
2022/01/19 14:37:37;;;;;;;26.10;17.48;;;5.10;99.90;;;;;;4913256;29;20232;-87
2022/01/19 14:40:30;;;;;;;12.70;11.35;;;6.50;99.90;;;;;;4897729;29;20238;-86
2022/01/19 14:43:19;;;;;;;23.77;16.15;;;5.30;99.90;;;;;;4905810;29;20211;-86
2022/01/19 14:46:04;;;;;;;20.77;13.65;;;5.70;99.90;;;;;;4910934;29;20199;-84
2022/01/19 14:48:46;;;;;;;18.20;12.70;;;7.50;99.90;;;;;;4922395;29;20204;-84
2022/01/19 14:51:30;;;;;;;26.27;15.85;;;4.90;99.90;;;;;;4933330;29;20668;-87
2022/01/19 14:54:09;;;;;;;26.33;18.30;;;5.20;99.90;;;;;;4930830;29;20213;-86
2022/01/19 14:56:36;;;;;;;26.30;19.42;;;6.20;99.90;;;;;;4919858;29;20219;-86
2022/01/19 14:59:16;;;;;;;25.48;18.38;;;6.60;99.90;;;;;;4924481;29;20610;-85
2022/01/19 15:02:13;;;;;;;25.80;18.15;;;5.00;99.90;;;;;;4928060;29;20179;-87
2022/01/19 15:05:02;;;;;;;;;;;;;;;;;;;;;
2022/01/19 15:07:56;;;;;;;;;;;;;;;;;;;;;
2022/01/19 15:10:28;;;;;;;32.75;22.10;;;6.00;99.90;;;;;;4925296;29;20195;-87
2022/01/19 15:12:58;;;;;;;26.55;17.75;;;5.20;99.90;;;;;;4916992;29;20427;-85
2022/01/19 15:16:12;;;;;;;31.60;22.00;;;7.00;99.90;;;;;;4920095;29;20228;-85
2022/01/19 15:18:49;;;;;;;29.80;18.15;;;5.70;99.90;;;;;;4826543;29;20193;-87
2022/01/19 15:21:17;;;;;;;39.70;20.92;;;;;;;;;;4823894;29;20195;-87
2022/01/19 15:23:58;;;;;;;33.03;21.38;;;4.70;99.90;;;;;;4828369;29;20918;-87
2022/01/19 15:26:30;;;;;;;36.35;17.92;;;5.50;99.90;;;;;;4865312;29;20203;-87
2022/01/19 15:29:01;;;;;;;28.88;18.10;;;7.00;99.90;;;;;;4922172;29;20183;-87